createdAt,value
2017-11-03T00:01:11.592Z,5.50
2017-11-03T00:03:39.420Z,5.77
2017-11-03T00:06:07.234Z,5.97
2017-11-03T00:08:35.052Z,6.40
2017-11-03T00:11:03.316Z,6.17
2017-11-03T00:13:31.883Z,7.47
2017-11-03T00:16:00.540Z,7.57
2017-11-03T00:18:28.359Z,8.57
2017-11-03T00:20:56.170Z,7.00
2017-11-03T00:23:24.018Z,6.30
2017-11-03T00:25:52.097Z,6.73
2017-11-03T00:28:19.877Z,6.80
2017-11-03T00:30:47.737Z,7.10
2017-11-03T00:33:15.578Z,5.80
2017-11-03T00:35:43.489Z,6.20
2017-11-03T00:38:11.355Z,8.07
2017-11-03T00:40:40.031Z,7.23
2017-11-03T00:43:08.968Z,6.27
2017-11-03T00:45:36.828Z,6.40
2017-11-03T00:48:05.523Z,6.70
2017-11-03T00:50:33.480Z,6.73
2017-11-03T00:53:02.258Z,5.93
2017-11-03T00:55:30.853Z,8.57
2017-11-03T00:57:59.470Z,9.13
2017-11-03T01:00:27.426Z,10.00
2017-11-03T01:02:55.894Z,8.67
2017-11-03T01:05:23.722Z,8.67
2017-11-03T01:07:51.504Z,9.40
2017-11-03T01:10:20.096Z,10.70
2017-11-03T01:12:48.667Z,9.17
2017-11-03T01:15:17.488Z,11.03
2017-11-03T01:17:45.329Z,9.30
2017-11-03T01:20:13.915Z,9.67
2017-11-03T01:22:42.663Z,9.60
2017-11-03T01:25:11.227Z,11.10
2017-11-03T01:27:39.033Z,10.30
2017-11-03T01:30:06.831Z,10.77
2017-11-03T01:32:34.640Z,10.60
2017-11-03T01:35:03.939Z,10.43
2017-11-03T01:37:31.758Z,10.00
2017-11-03T01:40:03.613Z,10.97
2017-11-03T01:42:31.673Z,10.57
2017-11-03T01:45:00.235Z,10.40
2017-11-03T01:47:28.097Z,10.00
2017-11-03T01:49:55.983Z,11.20
2017-11-03T01:52:24.608Z,12.57
2017-11-03T01:54:52.421Z,11.00
2017-11-03T01:57:20.240Z,9.67
2017-11-03T01:59:48.131Z,8.77
2017-11-03T02:02:15.965Z,9.00
2017-11-03T02:04:43.797Z,10.20
2017-11-03T02:07:12.431Z,8.57
2017-11-03T02:09:40.308Z,7.67
2017-11-03T02:12:08.186Z,8.70
2017-11-03T02:14:36.100Z,8.10
2017-11-03T02:17:03.987Z,7.93
2017-11-03T02:19:31.896Z,8.10
2017-11-03T02:21:59.799Z,7.83
2017-11-03T02:24:27.677Z,7.50
2017-11-03T02:26:55.484Z,7.80
2017-11-03T02:29:23.368Z,8.67
2017-11-03T02:31:51.252Z,8.20
2017-11-03T02:34:19.901Z,8.20
2017-11-03T02:36:47.799Z,8.30
2017-11-03T02:39:16.479Z,6.93
2017-11-03T02:41:45.101Z,7.90
2017-11-03T02:44:12.985Z,6.70
2017-11-03T02:46:40.845Z,7.63
2017-11-03T02:49:08.742Z,7.70
2017-11-03T02:51:36.660Z,7.00
2017-11-03T02:54:04.479Z,7.53
2017-11-03T02:56:32.375Z,7.57
2017-11-03T02:59:00.223Z,7.70
2017-11-03T03:01:28.813Z,7.50
2017-11-03T03:03:57.379Z,6.20
2017-11-03T03:06:25.218Z,7.93
2017-11-03T03:08:53.067Z,6.67
2017-11-03T03:11:21.265Z,5.87
2017-11-03T03:13:49.129Z,7.17
2017-11-03T03:16:17.262Z,6.97
2017-11-03T03:18:45.122Z,5.40
2017-11-03T03:21:13.000Z,6.50
2017-11-03T03:23:40.892Z,5.60
2017-11-03T03:26:08.824Z,6.27
2017-11-03T03:28:36.760Z,5.60
2017-11-03T03:31:04.714Z,5.93
2017-11-03T03:33:33.925Z,4.70
2017-11-03T03:36:02.019Z,5.80
2017-11-03T03:38:29.997Z,4.90
2017-11-03T03:40:58.026Z,5.60
2017-11-03T03:43:25.989Z,4.83
2017-11-03T03:45:53.900Z,5.00
2017-11-03T03:48:22.782Z,4.67
2017-11-03T03:50:51.432Z,4.97
2017-11-03T03:53:19.280Z,4.37
2017-11-03T03:55:47.275Z,4.40
2017-11-03T03:58:15.236Z,4.40
2017-11-03T04:00:43.175Z,5.40
2017-11-03T04:03:11.220Z,5.00
2017-11-03T04:05:39.887Z,5.13
2017-11-03T04:08:08.706Z,5.13
2017-11-03T04:10:36.660Z,5.70
2017-11-03T04:13:04.566Z,7.10
2017-11-03T04:15:32.396Z,5.93
2017-11-03T04:18:00.269Z,5.90
2017-11-03T04:20:28.597Z,5.57
2017-11-03T04:22:56.404Z,6.40
2017-11-03T04:25:24.361Z,5.50
2017-11-03T04:27:53.001Z,5.30
2017-11-03T04:30:20.900Z,5.63
2017-11-03T04:32:48.747Z,5.90
2017-11-03T04:35:16.595Z,6.30
2017-11-03T04:37:46.256Z,4.70
2017-11-03T04:40:14.891Z,5.50
2017-11-03T04:42:42.871Z,5.20
2017-11-03T04:45:11.112Z,4.93
2017-11-03T04:47:38.929Z,5.20
2017-11-03T04:50:07.638Z,4.67
2017-11-03T04:52:35.501Z,6.27
2017-11-03T04:55:04.142Z,4.60
2017-11-03T04:57:32.791Z,4.43
2017-11-03T05:00:00.612Z,4.70
2017-11-03T05:02:29.128Z,5.07
2017-11-03T05:04:57.501Z,6.90
2017-11-03T05:07:26.129Z,8.30
2017-11-03T05:09:55.050Z,9.30
2017-11-03T05:12:23.901Z,10.70
2017-11-03T05:14:51.885Z,9.30
2017-11-03T05:17:19.769Z,8.10
2017-11-03T05:19:47.909Z,7.50
2017-11-03T05:22:15.740Z,6.00
2017-11-03T05:24:44.378Z,5.70
2017-11-03T05:27:12.285Z,6.03
2017-11-03T05:29:41.175Z,6.20
2017-11-03T05:32:09.842Z,6.77
2017-11-03T05:34:38.672Z,7.07
2017-11-03T05:37:06.681Z,6.87
2017-11-03T05:39:34.584Z,6.50
2017-11-03T05:42:03.219Z,6.00
2017-11-03T05:44:31.083Z,6.30
2017-11-03T05:46:58.910Z,6.20
2017-11-03T05:49:26.983Z,5.57
2017-11-03T05:51:54.820Z,5.07
2017-11-03T05:54:22.803Z,5.00
2017-11-03T05:56:51.479Z,5.80
2017-11-03T05:59:20.182Z,5.27
2017-11-03T06:01:47.997Z,5.57
2017-11-03T06:04:15.824Z,6.00
2017-11-03T06:06:43.733Z,5.67
2017-11-03T06:09:11.882Z,5.67
2017-11-03T06:11:39.763Z,5.87
2017-11-03T06:14:07.625Z,6.83
2017-11-03T06:16:35.472Z,6.10
2017-11-03T06:19:03.325Z,6.77
2017-11-03T06:21:31.230Z,6.10
2017-11-03T06:23:59.147Z,5.50
2017-11-03T06:26:27.908Z,5.50
2017-11-03T06:28:55.858Z,6.27
2017-11-03T06:31:23.754Z,6.63
2017-11-03T06:33:52.403Z,6.07
2017-11-03T06:36:20.273Z,6.83
2017-11-03T06:38:48.192Z,5.47
2017-11-03T06:41:16.036Z,4.90
2017-11-03T06:43:44.295Z,5.57
2017-11-03T06:46:12.144Z,5.07
2017-11-03T06:48:40.093Z,6.30
2017-11-03T06:51:08.236Z,5.70
2017-11-03T06:53:36.939Z,5.40
2017-11-03T06:56:04.804Z,5.53
2017-11-03T06:58:32.734Z,6.90
2017-11-03T07:01:01.151Z,5.20
2017-11-03T07:03:29.017Z,5.53
2017-11-03T07:05:57.432Z,5.10
2017-11-03T07:08:25.768Z,6.57
2017-11-03T07:10:53.724Z,7.23
2017-11-03T07:13:22.397Z,7.20
2017-11-03T07:15:51.160Z,8.20
2017-11-03T07:18:19.040Z,7.20
2017-11-03T07:20:46.990Z,6.90
2017-11-03T07:23:15.594Z,7.07
2017-11-03T07:25:43.521Z,7.50
2017-11-03T07:28:11.432Z,7.63
2017-11-03T07:30:39.346Z,6.70
2017-11-03T07:33:07.288Z,7.10
2017-11-03T07:35:35.917Z,7.40
2017-11-03T07:38:03.813Z,8.43
2017-11-03T07:40:32.490Z,9.43
2017-11-03T07:43:00.385Z,9.57
2017-11-03T07:45:29.054Z,8.60
2017-11-03T07:47:56.969Z,8.13
2017-11-03T07:50:24.860Z,8.80
2017-11-03T07:52:52.708Z,8.40
2017-11-03T07:55:20.533Z,9.50
2017-11-03T07:57:49.141Z,11.23
2017-11-03T08:00:17.064Z,8.67
2017-11-03T08:02:44.972Z,8.77
2017-11-03T08:05:13.208Z,9.53
2017-11-03T08:07:41.107Z,10.70
2017-11-03T08:10:09.735Z,10.83
2017-11-03T08:12:37.618Z,12.43
2017-11-03T08:15:05.505Z,13.23
2017-11-03T08:17:34.091Z,13.77
2017-11-03T08:20:01.906Z,13.47
2017-11-03T08:22:29.733Z,10.70
2017-11-03T08:24:58.331Z,10.67
2017-11-03T08:27:26.217Z,10.30
2017-11-03T08:29:54.072Z,8.60
2017-11-03T08:32:21.917Z,8.10
2017-11-03T08:34:50.511Z,8.57
2017-11-03T08:37:19.110Z,10.67
2017-11-03T08:39:46.956Z,10.33
2017-11-03T08:42:15.568Z,11.27
2017-11-03T08:44:43.452Z,13.90
2017-11-03T08:47:11.373Z,16.07
2017-11-03T08:49:39.288Z,14.80
2017-11-03T08:52:07.299Z,15.70
2017-11-03T08:54:35.917Z,15.00
2017-11-03T08:57:03.879Z,14.20
2017-11-03T08:59:31.815Z,14.27
2017-11-03T09:02:00.461Z,13.98
2017-11-03T09:04:28.341Z,15.03
2017-11-03T09:06:56.404Z,13.90
2017-11-03T09:09:24.253Z,12.70
2017-11-03T09:11:52.243Z,13.57
2017-11-03T09:14:20.100Z,11.90
2017-11-03T09:16:48.805Z,11.70
2017-11-03T09:19:16.711Z,9.10
2017-11-03T09:21:44.993Z,8.77
2017-11-03T09:24:12.949Z,8.90
2017-11-03T09:26:41.676Z,9.23
2017-11-03T09:29:09.540Z,8.30
2017-11-03T09:31:37.472Z,7.53
2017-11-03T09:34:05.348Z,7.43
2017-11-03T09:36:33.240Z,6.90
2017-11-03T09:39:03.191Z,7.30
2017-11-03T09:41:32.090Z,7.17
2017-11-03T09:43:59.995Z,8.17
2017-11-03T09:46:28.678Z,9.13
2017-11-03T09:48:56.588Z,7.93
2017-11-03T09:51:24.468Z,7.77
2017-11-03T09:53:52.308Z,6.87
2017-11-03T09:56:20.280Z,6.77
2017-11-03T09:58:48.233Z,6.70
2017-11-03T10:01:16.065Z,6.43
2017-11-03T10:03:44.648Z,6.50
2017-11-03T10:06:13.280Z,6.73
2017-11-03T10:08:41.637Z,5.90
2017-11-03T10:11:09.572Z,6.73
2017-11-03T10:13:38.221Z,6.33
2017-11-03T10:16:06.099Z,6.50
2017-11-03T10:18:34.069Z,12.60
2017-11-03T10:21:02.001Z,9.00
2017-11-03T10:23:29.902Z,7.20
2017-11-03T10:25:58.014Z,6.17
2017-11-03T10:28:25.922Z,7.40
2017-11-03T10:30:53.803Z,8.07
2017-11-03T10:33:21.810Z,7.37
2017-11-03T10:35:49.845Z,7.43
2017-11-03T10:38:17.767Z,6.80
2017-11-03T10:40:45.586Z,6.47
2017-11-03T10:43:13.676Z,6.33
2017-11-03T10:45:42.455Z,6.07
2017-11-03T10:48:10.480Z,6.77
2017-11-03T10:50:38.396Z,6.90
2017-11-03T10:53:08.180Z,6.77
2017-11-03T10:55:36.033Z,8.20
2017-11-03T10:58:03.996Z,6.93
2017-11-03T11:00:32.063Z,7.00
2017-11-03T11:03:01.984Z,6.43
2017-11-03T11:05:29.867Z,5.63
2017-11-03T11:07:57.873Z,6.20
2017-11-03T11:10:26.647Z,6.50
2017-11-03T11:12:55.292Z,6.97
2017-11-03T11:15:23.109Z,7.70
2017-11-03T11:17:51.886Z,8.70
2017-11-03T11:20:20.568Z,7.67
2017-11-03T11:22:48.513Z,7.13
2017-11-03T11:25:16.912Z,7.90
2017-11-03T11:27:45.570Z,7.63
2017-11-03T11:30:13.497Z,7.57
2017-11-03T11:32:41.831Z,7.33
2017-11-03T11:35:09.860Z,7.23
2017-11-03T11:37:38.096Z,7.97
2017-11-03T11:40:06.792Z,6.70
2017-11-03T11:42:35.771Z,8.30
2017-11-03T11:45:03.841Z,7.70
2017-11-03T11:47:32.648Z,7.10
2017-11-03T11:50:01.412Z,7.70
2017-11-03T11:52:30.595Z,7.40
2017-11-03T11:54:58.916Z,7.43
2017-11-03T11:57:27.344Z,7.10
2017-11-03T11:59:55.476Z,7.60
2017-11-03T12:02:23.413Z,7.27
2017-11-03T12:04:52.290Z,6.60
2017-11-03T12:07:20.229Z,9.57
2017-11-03T12:09:48.613Z,10.83
2017-11-03T12:12:16.637Z,9.57
2017-11-03T12:14:45.757Z,12.13
2017-11-03T12:17:13.744Z,12.60
2017-11-03T12:19:41.719Z,7.60
2017-11-03T12:22:09.718Z,7.20
2017-11-03T12:24:37.606Z,7.40
2017-11-03T12:27:06.364Z,7.37
2017-11-03T12:29:34.294Z,7.60
2017-11-03T12:32:02.382Z,8.23
2017-11-03T12:34:30.330Z,7.87
2017-11-03T12:36:58.264Z,7.80
2017-11-03T12:39:26.995Z,9.90
2017-11-03T12:41:55.286Z,8.60
2017-11-03T12:44:23.303Z,8.60
2017-11-03T12:46:51.261Z,6.63
2017-11-03T12:49:21.253Z,6.47
2017-11-03T12:51:49.152Z,7.13
2017-11-03T12:54:17.906Z,6.87
2017-11-03T12:56:45.952Z,6.87
2017-11-03T12:59:13.872Z,6.60
2017-11-03T13:01:42.576Z,6.40
2017-11-03T13:04:10.549Z,6.10
2017-11-03T13:06:38.438Z,7.20
2017-11-03T13:09:06.416Z,7.30
2017-11-03T13:11:34.717Z,6.80
2017-11-03T13:14:02.634Z,7.73
2017-11-03T13:16:32.661Z,7.57
2017-11-03T13:19:01.460Z,9.00
2017-11-03T13:21:29.433Z,6.80
2017-11-03T13:23:57.349Z,7.20
2017-11-03T13:26:26.062Z,7.43
2017-11-03T13:28:54.110Z,6.77
2017-11-03T13:31:22.054Z,8.27
2017-11-03T13:33:50.017Z,8.97
2017-11-03T13:36:17.995Z,7.30
2017-11-03T13:38:45.970Z,8.20
2017-11-03T13:41:14.809Z,8.47
2017-11-03T13:43:42.865Z,8.83
2017-11-03T13:46:10.828Z,7.60
2017-11-03T13:48:38.852Z,7.70
2017-11-03T13:51:06.809Z,9.07
2017-11-03T13:53:44.365Z,8.60
2017-11-03T13:56:12.446Z,9.20
2017-11-03T13:58:40.350Z,7.77
2017-11-03T14:01:10.334Z,8.30
2017-11-03T14:03:38.327Z,8.67
2017-11-03T14:06:06.338Z,8.80
2017-11-03T14:08:34.951Z,8.83
2017-11-03T14:11:02.854Z,8.83
2017-11-03T14:13:30.856Z,8.27
2017-11-03T14:16:00.422Z,9.77
2017-11-03T14:18:28.265Z,8.20
2017-11-03T14:20:56.082Z,8.00
2017-11-03T14:23:24.886Z,8.53
2017-11-03T14:25:53.527Z,8.23
2017-11-03T14:28:21.440Z,8.90
2017-11-03T14:30:49.341Z,9.20
2017-11-03T14:33:17.224Z,8.87
2017-11-03T14:35:45.081Z,9.83
2017-11-03T14:38:14.474Z,10.73
2017-11-03T14:40:42.499Z,10.07
2017-11-03T14:43:11.974Z,11.10
2017-11-03T14:45:39.854Z,10.40
2017-11-03T14:48:07.783Z,10.03
2017-11-03T14:50:35.629Z,9.57
2017-11-03T14:53:03.480Z,10.17
2017-11-03T14:55:32.234Z,10.23
2017-11-03T14:58:00.118Z,11.47
2017-11-03T15:03:25.503Z,10.23
2017-11-03T15:08:58.255Z,9.57
2017-11-03T15:11:30.907Z,11.67
2017-11-03T15:13:58.957Z,10.03
2017-11-03T15:16:27.007Z,10.80
2017-11-03T15:18:58.174Z,11.20
2017-11-03T15:21:26.092Z,9.37
2017-11-03T15:23:55.582Z,12.40
2017-11-03T15:26:23.577Z,12.20
2017-11-03T15:28:51.527Z,12.10
2017-11-03T15:31:20.268Z,11.75
2017-11-03T15:33:48.284Z,11.43
2017-11-03T15:36:17.646Z,11.43
2017-11-03T15:38:45.538Z,13.43
2017-11-03T15:41:16.534Z,11.17
2017-11-03T15:43:45.339Z,11.70
2017-11-03T15:46:14.763Z,11.10
2017-11-03T15:48:44.656Z,11.47
2017-11-03T15:51:21.848Z,11.93
2017-11-03T15:53:51.067Z,12.00
2017-11-03T15:56:24.764Z,12.37
2017-11-03T15:59:04.118Z,11.33
2017-11-03T16:01:32.094Z,12.23
2017-11-03T16:04:05.652Z,11.70
2017-11-03T16:13:23.633Z,12.97
2017-11-03T16:15:51.512Z,13.27
2017-11-03T16:18:19.482Z,11.85
2017-11-03T16:20:47.304Z,11.40
2017-11-03T16:23:15.899Z,10.65
2017-11-03T16:25:43.824Z,10.30
2017-11-03T16:28:12.401Z,10.70
2017-11-03T16:30:41.004Z,10.88
2017-11-03T16:33:08.785Z,11.80
2017-11-03T16:35:36.916Z,11.77
2017-11-03T16:38:04.769Z,13.07
2017-11-03T16:40:32.576Z,11.87
2017-11-03T16:43:00.518Z,10.30
2017-11-03T16:45:29.172Z,11.63
2017-11-03T16:47:57.122Z,11.50
2017-11-03T16:50:27.937Z,12.90
2017-11-03T16:52:55.833Z,12.53
2017-11-03T16:55:23.693Z,13.73
2017-11-03T16:57:51.917Z,12.63
2017-11-03T17:00:20.656Z,12.67
2017-11-03T17:02:48.516Z,12.07
2017-11-03T17:05:16.341Z,11.80
2017-11-03T17:07:45.124Z,11.87
2017-11-03T17:10:13.776Z,12.30
2017-11-03T17:12:41.600Z,11.23
2017-11-03T17:15:09.484Z,12.00
2017-11-03T17:17:37.501Z,11.07
2017-11-03T17:20:05.467Z,10.83
2017-11-03T17:22:33.304Z,10.70
2017-11-03T17:25:01.138Z,11.80
2017-11-03T17:27:28.945Z,10.03
2017-11-03T17:29:56.746Z,10.53
2017-11-03T17:32:25.313Z,11.57
2017-11-03T17:34:53.117Z,10.83
2017-11-03T17:37:20.938Z,10.87
2017-11-03T17:39:48.847Z,9.73
2017-11-03T17:42:16.655Z,10.63
2017-11-03T17:44:44.484Z,11.10
2017-11-03T17:47:12.272Z,9.60
2017-11-03T17:49:40.108Z,10.00
2017-11-03T17:52:07.912Z,10.90
2017-11-03T17:54:35.812Z,11.50
2017-11-03T17:57:04.455Z,11.70
2017-11-03T17:59:32.423Z,11.90
2017-11-03T18:02:00.267Z,12.60
2017-11-03T18:04:28.108Z,11.90
2017-11-03T18:06:56.776Z,12.80
2017-11-03T18:09:24.648Z,12.53
2017-11-03T18:11:52.584Z,13.07
2017-11-03T18:14:20.444Z,13.33
2017-11-03T18:16:49.054Z,14.47
2017-11-03T18:19:17.386Z,13.10
2017-11-03T18:21:45.229Z,12.77
2017-11-03T18:24:13.097Z,13.70
2017-11-03T18:26:40.932Z,13.23
2017-11-03T18:29:09.593Z,14.87
2017-11-03T18:31:37.465Z,13.53
2017-11-03T18:34:05.343Z,14.30
2017-11-03T18:36:33.287Z,14.03
2017-11-03T18:39:01.121Z,13.07
2017-11-03T18:41:29.082Z,13.50
2017-11-03T18:43:57.704Z,14.40
2017-11-03T18:46:25.520Z,14.33
2017-11-03T18:48:54.080Z,43.67
2017-11-03T18:51:21.885Z,39.57
2017-11-03T18:53:49.754Z,24.63
2017-11-03T18:56:17.952Z,20.53
2017-11-03T18:58:45.837Z,16.63
2017-11-03T19:01:13.676Z,16.50
2017-11-03T19:03:41.529Z,17.10
2017-11-03T19:06:09.535Z,13.23
2017-11-03T19:08:37.337Z,13.73
2017-11-03T19:11:06.033Z,13.10
2017-11-03T19:13:33.935Z,13.80
2017-11-03T19:16:01.896Z,14.90
2017-11-03T19:18:29.750Z,15.90
2017-11-03T19:20:57.919Z,13.67
2017-11-03T19:23:25.836Z,13.97
2017-11-03T19:25:53.791Z,15.70
2017-11-03T19:28:21.633Z,18.50
2017-11-03T19:30:49.547Z,17.17
2017-11-03T19:33:17.353Z,16.37
2017-11-03T19:35:45.209Z,16.53
2017-11-03T19:38:13.856Z,16.53
2017-11-03T19:40:41.921Z,19.73
2017-11-03T19:43:09.793Z,16.63
2017-11-03T19:45:37.628Z,18.43
2017-11-03T19:48:05.577Z,18.43
2017-11-03T19:50:33.451Z,19.70
2017-11-03T19:53:01.481Z,18.70
2017-11-03T19:55:29.544Z,20.23
2017-11-03T19:57:58.518Z,17.57
2017-11-03T20:00:26.343Z,18.37
2017-11-03T20:02:54.878Z,18.90
2017-11-03T20:05:22.912Z,17.63
2017-11-03T20:07:50.723Z,18.50
2017-11-03T20:10:18.611Z,17.37
2017-11-03T20:12:47.216Z,19.63
2017-11-03T20:15:15.020Z,28.80
2017-11-03T20:17:42.908Z,19.27
2017-11-03T20:20:10.756Z,18.73
2017-11-03T20:22:38.612Z,18.50
2017-11-03T20:25:06.418Z,19.80
2017-11-03T20:27:35.027Z,18.43
2017-11-03T20:30:02.988Z,19.17
2017-11-03T20:32:30.907Z,18.20
2017-11-03T20:34:58.766Z,16.63
2017-11-03T20:37:26.580Z,18.53
2017-11-03T20:39:56.621Z,18.53
2017-11-03T20:42:25.356Z,19.73
2017-11-03T20:44:54.195Z,20.00
2017-11-03T20:47:22.140Z,21.00
2017-11-03T20:49:54.365Z,22.83
2017-11-03T20:52:40.378Z,25.90
2017-11-03T20:55:25.037Z,25.77
2017-11-03T20:57:55.391Z,23.50
2017-11-03T21:00:25.444Z,24.87
2017-11-03T21:02:58.573Z,24.50
2017-11-03T21:05:30.353Z,25.77
2017-11-03T21:08:08.363Z,34.37
2017-11-03T21:10:54.397Z,28.13
2017-11-03T21:13:35.934Z,29.23
2017-11-03T21:16:04.594Z,22.73
2017-11-03T21:18:33.696Z,18.53
2017-11-03T21:21:01.687Z,18.60
2017-11-03T21:23:36.276Z,18.97
2017-11-03T21:26:07.066Z,19.10
2017-11-03T21:28:38.944Z,15.37
2017-11-03T21:31:34.379Z,17.20
2017-11-03T21:34:10.217Z,17.57
2017-11-03T21:36:42.774Z,17.20
2017-11-03T21:39:10.732Z,16.20
2017-11-03T21:41:43.392Z,18.03
2017-11-03T21:44:12.342Z,16.23
2017-11-03T21:47:12.791Z,15.13
2017-11-03T21:49:40.954Z,16.80
2017-11-03T21:52:09.596Z,15.97
2017-11-03T21:54:38.319Z,16.70
2017-11-03T21:57:06.152Z,16.03
2017-11-03T21:59:33.953Z,18.10
2017-11-03T22:02:01.849Z,16.13
2017-11-03T22:04:30.483Z,16.87
2017-11-03T22:06:58.304Z,16.52
2017-11-03T22:09:26.917Z,17.63
2017-11-03T22:11:54.847Z,17.17
2017-11-03T22:14:23.490Z,16.42
2017-11-03T22:16:51.492Z,17.67
2017-11-03T22:19:20.222Z,16.70
2017-11-03T22:21:48.021Z,18.23
2017-11-03T22:24:16.194Z,16.93
2017-11-03T22:26:44.052Z,17.42
2017-11-03T22:29:11.994Z,18.03
2017-11-03T22:31:39.803Z,16.67
2017-11-03T22:34:07.668Z,15.53
2017-11-03T22:36:35.492Z,15.13
2017-11-03T22:39:03.461Z,12.70
2017-11-03T22:41:31.616Z,11.88
2017-11-03T22:43:59.417Z,10.90
2017-11-03T22:46:27.269Z,11.07
2017-11-03T22:48:55.258Z,10.57
2017-11-03T22:51:23.105Z,10.77
2017-11-03T22:53:50.991Z,10.03
2017-11-03T22:56:18.809Z,9.70
2017-11-03T22:58:46.639Z,9.80
2017-11-03T23:01:14.517Z,10.10
2017-11-03T23:03:42.398Z,10.97
2017-11-03T23:06:11.000Z,12.67
2017-11-03T23:08:38.810Z,10.93
2017-11-03T23:11:06.625Z,11.10
2017-11-03T23:13:34.495Z,13.00
2017-11-03T23:16:02.345Z,13.07
2017-11-03T23:18:31.976Z,12.90
2017-11-03T23:20:59.771Z,13.83
2017-11-03T23:23:27.759Z,13.30
2017-11-03T23:25:56.410Z,15.53
2017-11-03T23:28:24.232Z,15.93
2017-11-03T23:30:52.847Z,15.13
2017-11-03T23:33:20.641Z,14.33
2017-11-03T23:35:48.445Z,15.10
2017-11-03T23:38:17.124Z,15.73
2017-11-03T23:40:46.855Z,14.43
2017-11-03T23:43:15.531Z,13.07
2017-11-03T23:45:44.125Z,13.80
2017-11-03T23:48:12.030Z,13.30
2017-11-03T23:50:39.896Z,11.93
2017-11-03T23:53:07.823Z,11.03
2017-11-03T23:55:36.425Z,10.30
2017-11-03T23:58:04.280Z,11.67
